Time;durP1;ratioP1;P1;durP2;ratioP2;P2;SDS_P1;SDS_P2;PMS_P1;PMS_P2;Temp;Humidity;BMP_temperature;BMP_pressure;BME280_temperature;BME280_humidity;BME280_pressure;Samples;Min_cycle;Max_cycle;Signal;HPM_P1;HPM_P2
2021/07/19 00:01:03;;;;;;;5.10;4.57;;;23.00;96.70;;;;;;5101152;28;20511;-62
2021/07/19 00:03:30;;;;;;;6.80;4.60;;;23.00;96.70;;;;;;5110133;27;20950;-62
2021/07/19 00:05:57;;;;;;;4.80;4.10;;;23.00;96.60;;;;;;5112152;28;20465;-62
2021/07/19 00:08:24;;;;;;;4.90;4.30;;;22.90;96.50;;;;;;5103821;27;20465;-62
2021/07/19 00:10:51;;;;;;;8.60;3.93;;;22.90;96.40;;;;;;5105644;27;20470;-62
2021/07/19 00:13:18;;;;;;;5.50;5.00;;;22.80;96.50;;;;;;5110689;28;20472;-62
2021/07/19 00:15:47;;;;;;;5.10;4.60;;;22.80;96.50;;;;;;5113615;27;20506;-62
2021/07/19 00:18:13;;;;;;;6.33;4.30;;;22.70;96.50;;;;;;5106325;27;20465;-62
2021/07/19 00:20:40;;;;;;;7.03;4.30;;;22.70;96.50;;;;;;5113629;27;20486;-62
2021/07/19 00:23:07;;;;;;;6.30;4.30;;;22.70;96.60;;;;;;5107995;27;20458;-62
2021/07/19 00:25:34;;;;;;;5.63;4.37;;;22.60;96.50;;;;;;5111944;27;20612;-61
2021/07/19 00:28:03;;;;;;;5.70;5.10;;;22.60;96.50;;;;;;5113956;27;20541;-62
2021/07/19 00:30:32;;;;;;;5.80;4.70;;;22.60;96.20;;;;;;5112635;27;20464;-62
2021/07/19 00:33:00;;;;;;;5.37;4.90;;;22.60;96.10;;;;;;5106838;28;20473;-62
2021/07/19 00:35:27;;;;;;;6.40;5.10;;;22.50;96.00;;;;;;5103232;28;20476;-62
2021/07/19 00:37:54;;;;;;;6.13;5.20;;;22.50;96.00;;;;;;5111982;27;21012;-62
2021/07/19 00:40:24;;;;;;;5.37;4.73;;;22.50;96.10;;;;;;5114144;27;20509;-62
2021/07/19 00:42:51;;;;;;;5.30;4.77;;;22.40;96.30;;;;;;5113865;27;20521;-62
2021/07/19 00:45:20;;;;;;;6.20;5.57;;;22.40;95.90;;;;;;5109396;28;20517;-62
2021/07/19 00:47:49;;;;;;;8.50;7.80;;;22.40;95.90;;;;;;5112427;27;21027;-62
2021/07/19 00:50:19;;;;;;;8.67;7.87;;;22.40;95.70;;;;;;5100059;27;20981;-62
2021/07/19 00:52:48;;;;;;;10.27;7.87;;;22.30;95.70;;;;;;5102845;28;20466;-62
2021/07/19 00:55:16;;;;;;;11.00;7.30;;;22.30;95.50;;;;;;5113985;28;20462;-62
2021/07/19 00:57:48;;;;;;;7.60;6.90;;;22.30;95.90;;;;;;5108573;27;20476;-62
2021/07/19 01:00:16;;;;;;;8.90;7.50;;;22.20;95.40;;;;;;5108254;27;20838;-61
2021/07/19 01:02:47;;;;;;;8.20;5.93;;;22.20;95.20;;;;;;5107652;28;20518;-61
2021/07/19 01:05:14;;;;;;;8.03;5.90;;;22.20;95.10;;;;;;5111017;28;20856;-61
2021/07/19 01:07:44;;;;;;;8.77;5.93;;;22.10;95.60;;;;;;5101288;28;20461;-61
2021/07/19 01:10:16;;;;;;;10.80;7.23;;;22.10;95.20;;;;;;5110310;27;20514;-62
2021/07/19 01:12:45;;;;;;;10.03;6.67;;;22.10;96.00;;;;;;5112079;28;20460;-61
2021/07/19 01:15:12;;;;;;;9.70;7.00;;;22.00;95.60;;;;;;5100518;28;20521;-61
2021/07/19 01:17:40;;;;;;;7.33;6.63;;;22.00;95.50;;;;;;5110479;28;20464;-61
2021/07/19 01:20:08;;;;;;;6.63;6.10;;;22.00;95.60;;;;;;5108533;27;20473;-61
2021/07/19 01:22:59;;;;;;;7.97;7.17;;;21.90;95.60;;;;;;5100092;28;20543;-61
2021/07/19 01:25:47;;;;;;;8.17;5.70;;;21.90;95.70;;;;;;5113211;28;21027;-61
2021/07/19 01:28:30;;;;;;;8.67;5.97;;;21.90;95.90;;;;;;5110786;27;20863;-62
2021/07/19 01:31:01;;;;;;;8.13;5.27;;;21.80;96.00;;;;;;5109513;28;20457;-61
2021/07/19 01:33:29;;;;;;;6.10;5.50;;;21.80;96.30;;;;;;5113117;28;20464;-61
2021/07/19 01:35:58;;;;;;;6.50;5.90;;;21.70;96.40;;;;;;5106202;28;20468;-61
2021/07/19 01:38:27;;;;;;;8.30;6.43;;;21.70;96.50;;;;;;5100437;27;20465;-61
2021/07/19 01:40:58;;;;;;;6.10;5.50;;;21.60;96.60;;;;;;5112807;27;20476;-62
2021/07/19 01:43:27;;;;;;;7.13;6.53;;;21.60;96.80;;;;;;5109553;28;20525;-62
2021/07/19 01:45:56;;;;;;;6.70;6.10;;;21.60;96.80;;;;;;5107065;28;20959;-62
2021/07/19 01:48:23;;;;;;;7.80;5.80;;;21.60;96.80;;;;;;5109646;28;20979;-62
2021/07/19 01:50:52;;;;;;;13.10;7.70;;;21.50;96.80;;;;;;5113297;28;20468;-62
2021/07/19 01:53:20;;;;;;;7.00;6.40;;;21.50;96.90;;;;;;5106176;28;20545;-61
2021/07/19 01:55:48;;;;;;;11.50;6.07;;;21.50;96.70;;;;;;5112190;28;20529;-63
2021/07/19 01:58:16;;;;;;;8.97;6.90;;;21.50;96.50;;;;;;5111795;27;20525;-62
2021/07/19 02:00:44;;;;;;;8.87;6.77;;;21.50;96.60;;;;;;5103649;28;21021;-62
2021/07/19 02:03:12;;;;;;;11.33;8.73;;;21.40;96.40;;;;;;5106465;28;20469;-62
2021/07/19 02:05:39;;;;;;;7.63;6.07;;;21.50;96.40;;;;;;5110681;28;20624;-61
2021/07/19 02:08:07;;;;;;;9.17;6.63;;;21.40;96.10;;;;;;5112585;27;20468;-61
2021/07/19 02:10:36;;;;;;;8.83;7.17;;;21.40;96.00;;;;;;5112014;27;20545;-61
2021/07/19 02:13:05;;;;;;;7.87;6.27;;;21.40;95.80;;;;;;5111388;27;20521;-62
2021/07/19 02:15:33;;;;;;;9.00;7.73;;;21.30;95.70;;;;;;5111637;27;20966;-62
2021/07/19 02:18:02;;;;;;;10.17;7.90;;;21.30;95.80;;;;;;5112355;27;21005;-61
2021/07/19 02:20:31;;;;;;;14.00;12.47;;;21.20;95.90;;;;;;5111795;27;20701;-62
2021/07/19 02:23:01;;;;;;;7.60;6.90;;;21.20;96.00;;;;;;5110323;27;20514;-62
2021/07/19 02:25:28;;;;;;;8.33;5.70;;;21.10;95.80;;;;;;5109512;27;21006;-62
2021/07/19 02:27:56;;;;;;;10.20;6.00;;;21.10;95.50;;;;;;5114119;27;20501;-62
2021/07/19 02:30:25;;;;;;;11.37;8.60;;;21.00;95.60;;;;;;5114810;27;20460;-62
2021/07/19 02:32:55;;;;;;;8.67;7.30;;;21.00;95.70;;;;;;5115478;27;20837;-62
2021/07/19 02:35:24;;;;;;;6.57;5.53;;;21.00;95.50;;;;;;5115349;27;20513;-61
2021/07/19 02:37:54;;;;;;;7.60;6.20;;;21.00;95.40;;;;;;5116999;27;20550;-61
2021/07/19 02:40:25;;;;;;;9.83;5.10;;;20.90;95.50;;;;;;5116536;27;20584;-61
2021/07/19 02:42:55;;;;;;;8.57;5.50;;;20.90;95.40;;;;;;5117142;27;20517;-61
2021/07/19 02:45:23;;;;;;;12.33;9.37;;;20.90;95.10;;;;;;5116528;27;20830;-62
2021/07/19 02:47:52;;;;;;;9.90;6.13;;;20.80;95.30;;;;;;5116765;27;20464;-63
2021/07/19 02:50:22;;;;;;;12.30;6.60;;;20.80;95.20;;;;;;5116076;27;20472;-62
2021/07/19 02:52:52;;;;;;;11.10;5.83;;;20.70;95.10;;;;;;5116408;27;20523;-62
2021/07/19 02:55:19;;;;;;;7.93;5.47;;;20.70;95.20;;;;;;5116500;27;21031;-62
2021/07/19 02:57:47;;;;;;;8.90;6.93;;;20.70;95.30;;;;;;5116699;27;20472;-62
2021/07/19 03:00:16;;;;;;;9.60;5.80;;;20.70;95.40;;;;;;5116638;27;20468;-62
2021/07/19 03:02:47;;;;;;;13.10;7.63;;;20.70;95.50;;;;;;5112681;27;20787;-62
2021/07/19 03:05:16;;;;;;;10.17;7.70;;;20.70;95.60;;;;;;5096287;28;20545;-62
2021/07/19 03:07:45;;;;;;;11.83;7.93;;;20.70;95.90;;;;;;5094845;28;20465;-62
2021/07/19 03:10:15;;;;;;;13.40;11.43;;;20.60;96.00;;;;;;5095929;28;20457;-62
2021/07/19 03:12:43;;;;;;;12.07;8.30;;;20.60;96.30;;;;;;5095709;28;20461;-62
2021/07/19 03:15:11;;;;;;;12.10;7.30;;;20.60;96.30;;;;;;5096017;28;20465;-62
2021/07/19 03:17:40;;;;;;;11.47;8.77;;;20.50;96.20;;;;;;5095389;28;21040;-62
2021/07/19 03:20:10;;;;;;;8.73;4.70;;;20.50;96.40;;;;;;5095720;28;20861;-62
2021/07/19 03:22:39;;;;;;;12.27;8.67;;;20.40;96.10;;;;;;5095493;28;20841;-62
2021/07/19 03:25:10;;;;;;;9.23;5.30;;;20.40;96.30;;;;;;5095879;28;20465;-61
2021/07/19 03:27:39;;;;;;;10.13;5.20;;;20.30;96.10;;;;;;5095364;28;20522;-62
2021/07/19 03:30:06;;;;;;;9.63;7.23;;;20.20;96.00;;;;;;5095614;28;20522;-62
2021/07/19 03:32:34;;;;;;;11.60;8.03;;;20.20;96.30;;;;;;5095258;28;20550;-62
2021/07/19 03:35:03;;;;;;;10.57;5.17;;;20.20;96.10;;;;;;5095616;28;20499;-62
2021/07/19 03:37:30;;;;;;;9.03;6.20;;;20.10;95.90;;;;;;5095058;28;20536;-61
2021/07/19 03:39:59;;;;;;;10.60;5.50;;;20.10;96.10;;;;;;5094732;28;20457;-62
2021/07/19 03:42:27;;;;;;;7.67;5.97;;;20.00;95.70;;;;;;5095151;28;20539;-61
2021/07/19 03:44:57;;;;;;;16.50;6.97;;;20.00;95.70;;;;;;5095432;28;20465;-62
2021/07/19 03:47:24;;;;;;;14.27;5.67;;;20.00;95.80;;;;;;5094817;28;20469;-61
2021/07/19 03:49:51;;;;;;;17.03;6.80;;;19.90;95.50;;;;;;5095174;28;20514;-62
2021/07/19 03:52:18;;;;;;;5.23;3.87;;;19.90;95.40;;;;;;5095107;28;21039;-61
2021/07/19 03:54:45;;;;;;;6.13;4.60;;;19.90;95.30;;;;;;5094573;28;20849;-62
2021/07/19 03:57:15;;;;;;;9.23;5.57;;;19.90;95.20;;;;;;5095198;28;21030;-62
2021/07/19 03:59:42;;;;;;;6.67;4.20;;;19.90;95.50;;;;;;5094734;28;20469;-62
2021/07/19 04:02:13;;;;;;;12.10;5.37;;;19.90;95.30;;;;;;5094992;28;20511;-62
2021/07/19 04:04:41;;;;;;;8.80;5.40;;;19.90;95.30;;;;;;5094517;28;20959;-62
2021/07/19 04:07:10;;;;;;;10.40;4.33;;;19.80;95.20;;;;;;5094745;28;20472;-61
2021/07/19 04:09:39;;;;;;;6.60;4.87;;;19.80;94.90;;;;;;5094285;28;20477;-61
2021/07/19 04:12:09;;;;;;;7.93;5.00;;;19.90;95.00;;;;;;5094753;28;20553;-62
2021/07/19 04:14:36;;;;;;;7.20;4.40;;;19.90;95.10;;;;;;5094511;28;20470;-62
2021/07/19 04:17:05;;;;;;;7.03;4.97;;;19.80;95.00;;;;;;5094826;28;20830;-61
2021/07/19 04:19:34;;;;;;;7.80;4.40;;;19.80;95.10;;;;;;5094232;28;20473;-62
2021/07/19 04:22:02;;;;;;;6.93;4.63;;;19.80;94.70;;;;;;5094693;28;20789;-62
2021/07/19 04:24:29;;;;;;;7.70;4.00;;;19.80;94.60;;;;;;5094070;28;20465;-61
2021/07/19 04:26:56;;;;;;;9.17;5.37;;;19.80;94.60;;;;;;5094400;28;20453;-62
2021/07/19 04:29:23;;;;;;;10.83;6.10;;;19.80;94.70;;;;;;5094497;28;20472;-62
2021/07/19 04:31:54;;;;;;;9.83;5.10;;;19.80;94.80;;;;;;5094230;28;20550;-61
2021/07/19 04:34:29;;;;;;;9.70;4.97;;;19.80;94.70;;;;;;5094508;28;20822;-63
2021/07/19 04:37:00;;;;;;;10.67;5.43;;;19.80;94.70;;;;;;5094270;28;20464;-62
2021/07/19 04:39:27;;;;;;;5.53;3.90;;;19.80;94.60;;;;;;5094210;28;20470;-61
2021/07/19 04:41:55;;;;;;;6.33;4.47;;;19.80;94.90;;;;;;5094003;28;20465;-61
2021/07/19 04:44:22;;;;;;;5.83;4.20;;;19.80;94.60;;;;;;5094436;28;20963;-61
2021/07/19 04:46:50;;;;;;;5.43;4.40;;;19.80;94.60;;;;;;5093818;28;20469;-61
2021/07/19 04:49:17;;;;;;;14.10;5.40;;;19.80;94.50;;;;;;5093910;28;20971;-61
2021/07/19 04:51:45;;;;;;;12.43;4.53;;;19.80;94.40;;;;;;5093782;28;20526;-61
2021/07/19 04:54:17;;;;;;;11.03;5.70;;;19.80;94.30;;;;;;5093667;28;20568;-61
2021/07/19 04:56:45;;;;;;;11.03;5.10;;;19.90;94.10;;;;;;5093555;28;20528;-61
2021/07/19 04:59:14;;;;;;;5.10;3.70;;;19.90;94.10;;;;;;5094054;28;20514;-61
2021/07/19 05:01:41;;;;;;;10.07;4.83;;;19.90;94.00;;;;;;5093527;28;20465;-61
2021/07/19 05:04:10;;;;;;;10.37;4.90;;;19.90;93.90;;;;;;5093737;28;20526;-61
2021/07/19 05:06:38;;;;;;;6.00;4.40;;;19.90;93.80;;;;;;5093451;28;20539;-62
2021/07/19 05:09:06;;;;;;;7.20;4.87;;;19.90;93.50;;;;;;5093739;28;20772;-61
2021/07/19 05:11:35;;;;;;;10.77;4.53;;;19.90;93.50;;;;;;5093843;28;20800;-61
2021/07/19 05:14:03;;;;;;;8.43;4.27;;;19.90;93.20;;;;;;5093411;28;20453;-61
2021/07/19 05:16:32;;;;;;;6.10;4.40;;;19.90;93.20;;;;;;5093740;28;20520;-61
2021/07/19 05:19:01;;;;;;;9.20;4.40;;;19.90;93.40;;;;;;5092986;28;20466;-61
2021/07/19 05:21:28;;;;;;;7.40;4.60;;;20.00;93.20;;;;;;5093628;28;20871;-61
2021/07/19 05:23:55;;;;;;;6.30;4.40;;;20.00;93.20;;;;;;5093079;28;20462;-61
2021/07/19 05:26:22;;;;;;;9.00;5.60;;;20.10;93.10;;;;;;5093267;28;20538;-61
2021/07/19 05:28:50;;;;;;;7.73;4.20;;;20.10;93.10;;;;;;5093105;28;20978;-61
2021/07/19 05:31:17;;;;;;;5.90;4.80;;;20.10;92.90;;;;;;5093382;28;20527;-61
2021/07/19 05:33:45;;;;;;;7.60;5.03;;;20.20;92.80;;;;;;5092793;28;20861;-61
2021/07/19 05:36:12;;;;;;;8.80;5.70;;;20.30;92.70;;;;;;5093534;28;20469;-61
2021/07/19 05:38:41;;;;;;;7.33;4.63;;;20.30;92.70;;;;;;5092832;28;20548;-60
2021/07/19 05:41:08;;;;;;;10.90;5.23;;;20.40;92.60;;;;;;5093281;28;20465;-61
2021/07/19 05:43:35;;;;;;;14.20;6.40;;;20.40;92.50;;;;;;5093242;28;20475;-61
2021/07/19 05:46:04;;;;;;;12.70;6.03;;;20.50;92.10;;;;;;5092566;28;20530;-62
2021/07/19 05:48:31;;;;;;;18.37;7.10;;;20.60;92.20;;;;;;5092872;28;20458;-62
2021/07/19 05:50:59;;;;;;;13.03;7.00;;;20.50;92.20;;;;;;5092751;28;20465;-61
2021/07/19 05:53:26;;;;;;;9.27;7.00;;;20.50;92.20;;;;;;5092864;28;20538;-61
2021/07/19 05:55:53;;;;;;;9.60;5.90;;;20.60;92.00;;;;;;5092535;28;20465;-61
2021/07/19 05:58:20;;;;;;;9.87;5.70;;;20.60;92.10;;;;;;5092987;28;20987;-61
2021/07/19 06:00:47;;;;;;;12.23;5.50;;;20.60;92.00;;;;;;5092330;28;20469;-61
2021/07/19 06:03:16;;;;;;;8.80;6.37;;;20.60;91.90;;;;;;5092787;28;20494;-62
2021/07/19 06:05:43;;;;;;;10.90;7.70;;;20.70;91.70;;;;;;5092632;28;20526;-61
2021/07/19 06:08:10;;;;;;;12.40;5.53;;;20.80;91.80;;;;;;5092606;28;20458;-61
2021/07/19 06:10:37;;;;;;;10.43;6.60;;;20.80;91.70;;;;;;5092845;28;20469;-61
2021/07/19 06:13:04;;;;;;;10.90;6.03;;;20.80;91.90;;;;;;5092442;28;20495;-61
2021/07/19 06:15:31;;;;;;;6.90;5.40;;;20.90;91.50;;;;;;5092823;28;21200;-61
2021/07/19 06:17:58;;;;;;;12.10;6.83;;;20.90;91.40;;;;;;5092294;28;20474;-61
2021/07/19 06:20:29;;;;;;;12.07;6.73;;;21.00;91.30;;;;;;5092977;28;20466;-62
2021/07/19 06:23:00;;;;;;;7.50;5.07;;;21.10;91.40;;;;;;5092197;28;20474;-61
2021/07/19 06:25:29;;;;;;;15.97;7.67;;;21.20;91.40;;;;;;5092612;28;20465;-61
2021/07/19 06:27:57;;;;;;;11.43;7.80;;;21.20;91.20;;;;;;5092199;28;20544;-61
2021/07/19 06:30:24;;;;;;;11.93;6.70;;;21.30;90.90;;;;;;5092589;28;20457;-62
2021/07/19 06:32:51;;;;;;;9.40;7.27;;;21.40;91.00;;;;;;5092254;28;20473;-61
2021/07/19 06:35:17;;;;;;;10.73;8.00;;;21.50;90.90;;;;;;5092853;28;20465;-62
2021/07/19 06:37:46;;;;;;;10.50;8.17;;;21.60;90.70;;;;;;5092111;28;20527;-62
2021/07/19 06:40:14;;;;;;;17.20;7.87;;;21.70;90.50;;;;;;5092702;28;20457;-61
2021/07/19 06:42:41;;;;;;;11.53;7.43;;;21.80;90.50;;;;;;5092692;28;20850;-61
2021/07/19 06:45:10;;;;;;;10.53;7.07;;;21.80;90.40;;;;;;5092036;28;20517;-61
2021/07/19 06:47:38;;;;;;;11.47;8.00;;;21.90;90.30;;;;;;5092352;28;20530;-61
2021/07/19 06:50:06;;;;;;;10.60;7.80;;;22.00;90.00;;;;;;5092326;28;20930;-60
2021/07/19 06:52:33;;;;;;;7.37;6.63;;;22.00;90.10;;;;;;5092103;28;20481;-60
2021/07/19 06:55:01;;;;;;;11.53;6.77;;;22.10;90.00;;;;;;5091817;28;20461;-61
2021/07/19 06:57:28;;;;;;;11.10;7.60;;;22.00;89.30;;;;;;5092589;28;20491;-60
2021/07/19 06:59:56;;;;;;;11.07;6.97;;;22.10;89.50;;;;;;5092037;28;20559;-61
2021/07/19 07:02:23;;;;;;;9.73;6.50;;;22.20;89.00;;;;;;5092568;28;21034;-60
2021/07/19 07:04:50;;;;;;;12.00;6.40;;;22.30;88.90;;;;;;5091823;28;20466;-60
2021/07/19 07:07:17;;;;;;;9.67;6.70;;;22.40;88.40;;;;;;5092021;28;20531;-60
2021/07/19 07:09:44;;;;;;;15.60;7.97;;;22.40;88.80;;;;;;5092336;28;20522;-60
2021/07/19 07:12:12;;;;;;;12.07;8.00;;;22.40;88.60;;;;;;5091683;28;20518;-61
2021/07/19 07:14:39;;;;;;;8.63;7.40;;;22.50;88.40;;;;;;5094537;28;20477;-62
2021/07/19 07:17:06;;;;;;;10.23;7.63;;;22.50;88.70;;;;;;5095493;28;20519;-60
2021/07/19 07:19:33;;;;;;;9.07;6.03;;;22.50;87.90;;;;;;5095770;28;20838;-61
2021/07/19 07:22:00;;;;;;;9.30;7.00;;;22.60;87.70;;;;;;5095160;28;20522;-61
2021/07/19 07:24:27;;;;;;;7.93;6.97;;;22.60;88.60;;;;;;5096153;28;20473;-61
2021/07/19 07:26:54;;;;;;;11.23;6.57;;;22.70;88.00;;;;;;5095114;28;20461;-61
2021/07/19 07:29:22;;;;;;;11.43;7.00;;;22.80;87.80;;;;;;5095452;28;20469;-61
2021/07/19 07:31:49;;;;;;;9.97;7.20;;;22.80;87.60;;;;;;5095293;28;20457;-61
2021/07/19 07:34:16;;;;;;;7.93;7.13;;;22.90;87.30;;;;;;5095522;28;20530;-61
2021/07/19 07:36:43;;;;;;;12.37;8.53;;;23.00;86.90;;;;;;5095486;28;20511;-61
2021/07/19 07:39:10;;;;;;;8.13;7.30;;;23.00;87.10;;;;;;5094976;28;20465;-61
2021/07/19 07:41:37;;;;;;;17.00;6.87;;;23.10;85.80;;;;;;5095606;28;20925;-61
2021/07/19 07:44:04;;;;;;;11.27;6.60;;;23.20;86.30;;;;;;5094872;28;20523;-61
2021/07/19 07:46:33;;;;;;;7.83;7.03;;;23.20;85.50;;;;;;5095498;28;20465;-62
2021/07/19 07:49:00;;;;;;;9.27;7.40;;;23.30;85.50;;;;;;5094700;28;20457;-60
2021/07/19 07:51:27;;;;;;;9.17;8.10;;;23.30;85.60;;;;;;5095098;28;20465;-62
2021/07/19 07:53:53;;;;;;;10.57;7.77;;;23.40;85.20;;;;;;5094722;28;20477;-61
2021/07/19 07:56:20;;;;;;;8.50;7.60;;;23.50;85.00;;;;;;5095153;28;20534;-62
2021/07/19 07:58:47;;;;;;;7.57;6.53;;;23.50;84.60;;;;;;5095147;28;20663;-61
2021/07/19 08:01:14;;;;;;;7.67;6.97;;;23.60;84.50;;;;;;5094555;28;20479;-63
2021/07/19 08:03:42;;;;;;;10.13;7.20;;;23.60;83.90;;;;;;5094876;28;20943;-61
2021/07/19 08:06:09;;;;;;;8.73;7.20;;;23.70;83.80;;;;;;5094661;28;20543;-61
2021/07/19 08:08:36;;;;;;;10.77;7.00;;;23.70;83.60;;;;;;5094575;28;20465;-62
2021/07/19 08:11:04;;;;;;;10.40;7.00;;;23.80;83.00;;;;;;5094453;28;20469;-61
2021/07/19 08:13:31;;;;;;;11.10;7.10;;;23.80;82.30;;;;;;5095023;28;20490;-61
2021/07/19 08:15:58;;;;;;;8.93;6.53;;;23.80;82.20;;;;;;5094268;28;20967;-62
2021/07/19 08:18:25;;;;;;;9.30;7.37;;;23.80;82.30;;;;;;5094457;28;20465;-62
2021/07/19 08:20:53;;;;;;;8.10;6.57;;;23.80;82.30;;;;;;5094428;28;20785;-62
2021/07/19 08:23:20;;;;;;;10.40;7.50;;;23.90;82.10;;;;;;5094386;28;21032;-61
2021/07/19 08:25:47;;;;;;;9.07;8.17;;;24.00;81.70;;;;;;5094283;28;20523;-62
2021/07/19 08:28:14;;;;;;;7.60;6.83;;;24.10;81.30;;;;;;5094202;28;20458;-61
2021/07/19 08:30:42;;;;;;;8.27;7.40;;;24.20;80.80;;;;;;5094335;28;20484;-61
2021/07/19 08:33:08;;;;;;;8.50;7.40;;;24.50;79.50;;;;;;5094139;28;20538;-61
2021/07/19 08:35:36;;;;;;;8.13;6.43;;;24.50;79.10;;;;;;5094440;28;20543;-61
2021/07/19 08:38:06;;;;;;;8.90;6.80;;;24.50;79.10;;;;;;5093749;28;20829;-61
2021/07/19 08:40:33;;;;;;;7.63;6.30;;;24.50;79.40;;;;;;5094496;28;20852;-61
2021/07/19 08:43:03;;;;;;;7.07;6.37;;;24.40;79.30;;;;;;5094020;28;20470;-61
2021/07/19 08:45:30;;;;;;;8.43;6.60;;;24.30;79.50;;;;;;5094136;28;20746;-62
2021/07/19 08:47:57;;;;;;;8.40;7.00;;;24.20;79.70;;;;;;5093524;28;21032;-62
2021/07/19 08:50:24;;;;;;;6.30;5.63;;;24.10;79.80;;;;;;5094133;28;20522;-62
2021/07/19 08:52:53;;;;;;;9.20;6.33;;;24.00;79.00;;;;;;5093960;28;20481;-61
2021/07/19 08:55:22;;;;;;;9.70;7.07;;;23.90;78.60;;;;;;5093932;28;21626;-61
2021/07/19 08:57:50;;;;;;;6.67;6.00;;;23.80;78.50;;;;;;5094084;28;21001;-61
2021/07/19 09:00:18;;;;;;;7.87;6.60;;;23.80;78.60;;;;;;5093360;28;20465;-61
2021/07/19 09:02:45;;;;;;;10.80;7.47;;;23.70;79.20;;;;;;5093961;28;20477;-61
2021/07/19 09:05:13;;;;;;;9.23;7.10;;;23.70;80.00;;;;;;5093384;28;20469;-62
2021/07/19 09:07:41;;;;;;;6.97;6.23;;;23.70;80.50;;;;;;5093455;28;20473;-61
2021/07/19 09:10:11;;;;;;;9.03;8.03;;;23.80;80.20;;;;;;5093305;28;20473;-61
2021/07/19 09:12:40;;;;;;;7.90;6.70;;;23.80;80.10;;;;;;5093817;28;20967;-62
2021/07/19 09:15:09;;;;;;;8.23;6.63;;;23.70;79.60;;;;;;5093147;28;20541;-61
2021/07/19 09:17:37;;;;;;;6.37;5.57;;;23.70;79.40;;;;;;5093648;28;20519;-61
2021/07/19 09:20:09;;;;;;;7.60;5.77;;;23.70;79.50;;;;;;5093088;28;20565;-61
2021/07/19 09:22:37;;;;;;;9.00;5.93;;;23.60;79.00;;;;;;5093278;28;20480;-61
2021/07/19 09:25:09;;;;;;;10.43;6.77;;;23.50;79.10;;;;;;5092908;28;20465;-60
2021/07/19 09:27:36;;;;;;;6.77;5.70;;;23.50;79.40;;;;;;5093406;28;20968;-62
2021/07/19 09:30:14;;;;;;;8.30;5.90;;;23.50;79.80;;;;;;5092815;28;20465;-61
2021/07/19 09:32:59;;;;;;;7.00;5.23;;;23.60;79.70;;;;;;5093305;28;20465;-62
2021/07/19 09:35:27;;;;;;;8.20;6.87;;;23.60;79.80;;;;;;5092974;28;20538;-61
2021/07/19 09:37:54;;;;;;;7.67;5.53;;;23.50;79.50;;;;;;5092638;28;20473;-62
2021/07/19 09:40:26;;;;;;;6.90;6.00;;;23.50;79.80;;;;;;5092903;28;20461;-62
2021/07/19 09:42:54;;;;;;;7.50;6.80;;;23.50;79.50;;;;;;5093127;28;21381;-62
2021/07/19 09:45:27;;;;;;;7.27;6.57;;;23.40;80.00;;;;;;5092787;28;20466;-62
2021/07/19 09:48:05;;;;;;;8.70;6.73;;;23.40;80.00;;;;;;5092970;28;20478;-60
2021/07/19 09:50:45;;;;;;;5.73;4.63;;;23.40;80.60;;;;;;5092889;28;20958;-60
2021/07/19 09:53:12;;;;;;;5.43;4.93;;;23.40;80.00;;;;;;5092301;28;20958;-60
2021/07/19 09:55:40;;;;;;;5.80;5.30;;;23.40;80.20;;;;;;5093003;28;20469;-61
2021/07/19 09:58:07;;;;;;;6.97;6.27;;;23.40;79.60;;;;;;5092983;28;20530;-61
2021/07/19 10:00:36;;;;;;;8.67;5.93;;;23.40;80.00;;;;;;5092368;28;21614;-60
2021/07/19 10:03:13;;;;;;;6.30;5.70;;;23.30;80.10;;;;;;5105563;27;20513;-60
2021/07/19 10:05:41;;;;;;;6.80;5.10;;;23.30;80.50;;;;;;5108681;27;20843;-60
2021/07/19 10:08:08;;;;;;;7.90;6.20;;;23.30;80.50;;;;;;5111885;27;20473;-60
2021/07/19 10:10:37;;;;;;;7.37;5.50;;;23.20;80.50;;;;;;5110529;27;20469;-60
2021/07/19 10:13:06;;;;;;;7.03;6.27;;;23.20;81.10;;;;;;5108705;27;20641;-63
2021/07/19 10:15:36;;;;;;;9.47;5.23;;;23.10;81.20;;;;;;5111703;27;20553;-61
2021/07/19 10:18:07;;;;;;;6.67;6.00;;;23.00;81.10;;;;;;5112763;27;20514;-61
2021/07/19 10:20:35;;;;;;;7.30;5.87;;;23.00;81.60;;;;;;5109014;27;20480;-62
2021/07/19 10:23:02;;;;;;;7.47;6.70;;;23.00;82.10;;;;;;5111244;27;20457;-62
2021/07/19 10:25:29;;;;;;;7.80;6.40;;;23.00;82.20;;;;;;5111477;27;20912;-62
2021/07/19 10:27:57;;;;;;;7.00;5.93;;;23.00;82.20;;;;;;5110467;27;20525;-62
2021/07/19 10:30:24;;;;;;;6.70;5.93;;;22.90;82.80;;;;;;5110210;27;20662;-62
2021/07/19 10:32:52;;;;;;;7.10;5.60;;;22.90;83.10;;;;;;5111586;27;20505;-62
2021/07/19 10:35:21;;;;;;;19.10;7.80;;;22.90;83.90;;;;;;5110534;27;20544;-62
2021/07/19 10:37:53;;;;;;;6.80;5.80;;;22.90;84.30;;;;;;5112886;27;21006;-62
2021/07/19 10:40:26;;;;;;;7.63;6.93;;;22.80;84.70;;;;;;5108771;27;20467;-62
2021/07/19 10:43:04;;;;;;;7.63;5.80;;;22.80;85.20;;;;;;5109049;27;20453;-62
2021/07/19 10:45:39;;;;;;;11.37;5.00;;;22.90;85.30;;;;;;5110516;27;20456;-62
2021/07/19 10:48:09;;;;;;;10.30;5.27;;;22.90;84.90;;;;;;5114332;27;20559;-62
2021/07/19 10:50:40;;;;;;;6.03;5.20;;;22.90;84.80;;;;;;5110154;27;20502;-62
2021/07/19 10:53:17;;;;;;;6.87;5.13;;;22.90;83.90;;;;;;5111213;27;20556;-62
2021/07/19 10:55:45;;;;;;;5.37;4.87;;;23.00;83.50;;;;;;5095495;28;20484;-62
2021/07/19 10:58:16;;;;;;;5.77;5.17;;;22.90;83.00;;;;;;5098571;27;20545;-62
2021/07/19 11:00:46;;;;;;;5.83;4.60;;;22.90;83.10;;;;;;5101598;27;20455;-62
2021/07/19 11:03:16;;;;;;;7.27;4.97;;;22.90;83.50;;;;;;5103843;27;20989;-62
2021/07/19 11:05:48;;;;;;;5.83;4.37;;;22.90;83.60;;;;;;5111495;27;20836;-62
2021/07/19 11:08:24;;;;;;;6.50;5.63;;;22.90;83.20;;;;;;5113998;27;20999;-62
2021/07/19 11:10:52;;;;;;;6.27;5.53;;;22.90;82.90;;;;;;5113014;27;20448;-63
2021/07/19 11:13:27;;;;;;;8.10;5.30;;;22.90;82.30;;;;;;5116425;27;20539;-61
2021/07/19 11:15:54;;;;;;;9.67;5.50;;;22.80;81.70;;;;;;5115721;27;20673;-61
2021/07/19 11:18:26;;;;;;;6.10;5.03;;;22.80;82.00;;;;;;5114363;27;20980;-60
2021/07/19 11:20:54;;;;;;;4.67;3.87;;;22.90;82.40;;;;;;5114842;27;20456;-61
2021/07/19 11:23:32;;;;;;;9.33;4.17;;;22.90;82.60;;;;;;5110493;27;21038;-61
2021/07/19 11:26:00;;;;;;;3.50;3.20;;;22.90;82.10;;;;;;5113159;27;20456;-61
2021/07/19 11:28:30;;;;;;;6.00;4.17;;;22.90;82.30;;;;;;5113520;27;20954;-61
2021/07/19 11:31:06;;;;;;;3.80;3.00;;;22.90;81.50;;;;;;5113718;27;20461;-61
2021/07/19 11:33:36;;;;;;;5.57;3.70;;;22.90;81.50;;;;;;5113254;27;20473;-61
2021/07/19 11:36:15;;;;;;;4.13;3.00;;;23.00;80.50;;;;;;5114790;27;20460;-61
2021/07/19 11:38:42;;;;;;;4.90;3.80;;;23.00;80.50;;;;;;5113045;27;20541;-61
2021/07/19 11:41:18;;;;;;;4.03;3.50;;;23.10;80.40;;;;;;5099322;28;20522;-61
2021/07/19 11:43:46;;;;;;;5.27;3.93;;;23.20;80.60;;;;;;5094727;28;20482;-61
2021/07/19 11:46:14;;;;;;;4.40;4.00;;;23.20;80.60;;;;;;5095373;28;20983;-61
2021/07/19 11:48:44;;;;;;;4.23;3.63;;;23.30;80.70;;;;;;5094633;28;20498;-61
2021/07/19 11:51:11;;;;;;;4.33;3.93;;;23.40;80.60;;;;;;5095226;28;20536;-62
2021/07/19 11:53:43;;;;;;;5.30;3.70;;;23.50;80.50;;;;;;5094837;28;20523;-61
2021/07/19 11:56:10;;;;;;;5.90;5.00;;;23.50;80.20;;;;;;5094779;28;20540;-62
2021/07/19 11:58:38;;;;;;;6.37;3.93;;;23.60;80.50;;;;;;5095036;28;20546;-61
2021/07/19 12:01:05;;;;;;;11.93;4.30;;;23.60;80.30;;;;;;5094204;28;20983;-61
2021/07/19 12:03:32;;;;;;;4.57;3.70;;;23.70;80.50;;;;;;5094703;28;20469;-62
2021/07/19 12:06:01;;;;;;;5.07;4.30;;;23.70;80.80;;;;;;5094468;28;20979;-61
2021/07/19 12:08:29;;;;;;;4.73;4.27;;;23.80;80.80;;;;;;5094541;28;20473;-61
2021/07/19 12:11:01;;;;;;;4.57;4.17;;;23.80;80.80;;;;;;5094182;28;20471;-61
2021/07/19 12:13:33;;;;;;;6.83;3.50;;;23.80;80.90;;;;;;5094872;28;20461;-61
2021/07/19 12:16:00;;;;;;;4.80;3.80;;;23.80;80.80;;;;;;5094315;28;20462;-61
2021/07/19 12:18:29;;;;;;;7.10;4.00;;;23.80;81.10;;;;;;5094457;28;20496;-61
2021/07/19 12:20:57;;;;;;;4.70;3.30;;;23.70;80.90;;;;;;5094149;28;20545;-61
2021/07/19 12:23:36;;;;;;;8.47;4.40;;;23.70;81.30;;;;;;5094598;28;20834;-63
2021/07/19 12:26:04;;;;;;;5.97;4.50;;;23.60;81.70;;;;;;5094000;28;20545;-62
2021/07/19 12:28:31;;;;;;;7.53;4.47;;;23.60;82.10;;;;;;5094238;28;20469;-61
2021/07/19 12:31:13;;;;;;;4.97;4.50;;;23.60;81.80;;;;;;5093953;28;20473;-61
2021/07/19 12:33:40;;;;;;;7.80;5.93;;;23.50;81.90;;;;;;5094662;28;20488;-61
2021/07/19 12:36:07;;;;;;;7.07;6.00;;;23.50;81.90;;;;;;5093792;28;20469;-62
2021/07/19 12:38:36;;;;;;;5.23;4.73;;;23.50;82.10;;;;;;5094100;28;20943;-62
2021/07/19 12:41:03;;;;;;;6.70;4.40;;;23.50;82.00;;;;;;5093989;28;20469;-62
2021/07/19 12:43:32;;;;;;;5.47;4.33;;;23.50;81.70;;;;;;5094265;28;20538;-62
2021/07/19 12:45:59;;;;;;;4.73;4.33;;;23.50;81.60;;;;;;5093664;28;20548;-62
2021/07/19 12:48:26;;;;;;;6.10;4.57;;;23.50;81.40;;;;;;5094377;28;20550;-62
2021/07/19 12:51:03;;;;;;;4.80;4.40;;;23.60;80.20;;;;;;5093550;28;20660;-62